Time;durP1;ratioP1;P1;durP2;ratioP2;P2;SDS_P1;SDS_P2;PMS_P1;PMS_P2;Temp;Humidity;BMP_temperature;BMP_pressure;BME280_temperature;BME280_humidity;BME280_pressure;Samples;Min_cycle;Max_cycle;Signal;HPM_P1;HPM_P2
2022/11/07 00:00:52;;;;;;;;;2.00;2.00;;;;;13.31;74.73;100429.22;5034636;28;47292;-80
2022/11/07 00:03:17;;;;;;;;;5.00;2.75;;;;;13.23;74.65;100430.84;5052686;28;46106;-80
2022/11/07 00:05:43;;;;;;;;;3.00;1.75;;;;;13.34;74.83;100439.47;5034894;28;45578;-80
2022/11/07 00:08:08;;;;;;;;;3.00;2.00;;;;;13.33;74.91;100443.06;5052915;28;45685;-81
2022/11/07 00:10:33;;;;;;;;;5.00;1.50;;;;;13.35;74.42;100441.16;5052449;28;46265;-79
2022/11/07 00:12:58;;;;;;;;;4.25;1.00;;;;;13.32;75.01;100437.97;5052712;28;46288;-81
2022/11/07 00:15:24;;;;;;;;;4.25;1.75;;;;;13.35;74.87;100448.22;5034456;28;45739;-81
2022/11/07 00:17:49;;;;;;;;;2.00;2.00;;;;;13.35;74.89;100459.56;5052856;28;45609;-81
2022/11/07 00:20:14;;;;;;;;;3.75;2.00;;;;;13.37;74.53;100459.44;5052663;28;45689;-83
2022/11/07 00:22:40;;;;;;;;;2.00;2.00;;;;;13.32;74.91;100440.59;5052681;28;46355;-81
2022/11/07 00:28:27;;;;;;;;;3.00;0.00;;;;;13.36;74.39;100449.88;5052441;28;45585;-80
2022/11/07 00:30:52;;;;;;;;;6.25;2.00;;;;;13.38;74.32;100455.88;5052572;28;45628;-81
2022/11/07 00:33:17;;;;;;;;;1.75;1.00;;;;;13.37;74.25;100447.13;5051686;28;46536;-80
2022/11/07 00:35:43;;;;;;;;;3.00;2.25;;;;;13.44;74.27;100456.16;5052884;28;45641;-80
2022/11/07 00:38:08;;;;;;;;;3.00;1.00;;;;;13.37;74.62;100446.28;5054358;28;45782;-77
2022/11/07 00:40:33;;;;;;;;;3.50;2.00;;;;;13.44;74.10;100461.41;5054361;28;45656;-76
2022/11/07 00:42:59;;;;;;;;;3.25;1.00;;;;;13.47;74.18;100467.41;5053296;28;47252;-80
2022/11/07 00:45:24;;;;;;;;;3.25;1.50;;;;;13.47;74.38;100465.59;5052455;28;45667;-75
2022/11/07 00:47:50;;;;;;;;;5.00;1.25;;;;;13.45;74.12;100449.94;5051986;28;45860;-73
2022/11/07 00:50:16;;;;;;;;;2.75;1.00;;;;;13.45;74.34;100460.44;5051843;28;47784;-74
2022/11/07 00:52:41;;;;;;;;;2.75;2.00;;;;;13.47;74.38;100449.81;5052508;28;45801;-80
2022/11/07 00:58:29;;;;;;;;;1.50;1.00;;;;;13.41;74.25;100445.06;5052775;28;45659;-75
2022/11/07 01:00:55;;;;;;;;;1.75;1.00;;;;;13.45;74.59;100452.56;5052094;28;46371;-75
2022/11/07 01:06:15;;;;;;;;;1.50;1.00;;;;;13.45;74.32;100438.56;4969805;28;45806;-75
2022/11/07 01:08:40;;;;;;;;;2.50;1.50;;;;;13.45;74.59;100439.41;4970740;28;45697;-79
2022/11/07 01:11:06;;;;;;;;;3.00;1.00;;;;;13.46;74.29;100442.88;4973627;28;47579;-78
2022/11/07 01:13:32;;;;;;;;;1.00;1.00;;;;;13.43;74.25;100438.72;4973181;28;46491;-78
2022/11/07 01:15:58;;;;;;;;;4.00;1.75;;;;;13.43;74.09;100437.88;4973950;28;46083;-75
2022/11/07 01:18:23;;;;;;;;;3.50;3.00;;;;;13.52;74.30;100452.03;4973903;28;45847;-82
2022/11/07 01:20:49;;;;;;;;;3.25;1.00;;;;;13.54;74.20;100460.66;4973488;28;47384;-77
2022/11/07 01:29:39;;;;;;;;;2.00;2.00;;;;;13.58;74.08;100454.16;4973535;28;45706;-80
2022/11/07 01:32:04;;;;;;;;;4.25;1.25;;;;;13.58;74.28;100449.72;4972947;28;46772;-75
2022/11/07 01:34:30;;;;;;;;;3.00;1.25;;;;;13.62;74.31;100460.81;4973602;28;46062;-76
2022/11/07 01:36:56;;;;;;;;;1.00;1.00;;;;;13.54;73.73;100458.84;4973895;28;45745;-77
2022/11/07 01:39:22;;;;;;;;;2.00;1.00;;;;;13.63;74.23;100454.59;4973280;28;45785;-76
2022/11/07 01:41:47;;;;;;;;;3.50;2.00;;;;;13.63;74.24;100463.31;4983194;28;47399;-81
2022/11/07 01:44:12;;;;;;;;;2.25;1.75;;;;;13.64;74.16;100451.00;5055326;28;45891;-79
2022/11/07 01:46:43;;;;;;;;;3.00;2.00;;;;;13.65;74.09;100460.56;5055691;28;45602;-82
2022/11/07 01:49:20;;;;;;;;;4.00;2.25;;;;;13.63;74.43;100467.75;5055425;28;45673;-83
2022/11/07 01:52:07;;;;;;;;;3.00;1.00;;;;;13.68;74.42;100478.72;5057104;28;46471;-82
2022/11/07 01:54:36;;;;;;;;;2.00;1.50;;;;;13.69;74.24;100478.59;5058408;28;46201;-81
2022/11/07 01:57:12;;;;;;;;;3.00;2.00;;;;;13.70;74.30;100482.06;5058230;28;45740;-82
2022/11/07 01:59:39;;;;;;;;;3.50;1.75;;;;;13.67;74.25;100482.31;5055182;28;45612;-77
2022/11/07 02:02:05;;;;;;;;;3.00;2.00;;;;;13.73;74.27;100479.16;5054846;28;46503;-83
2022/11/07 02:04:31;;;;;;;;;2.25;2.00;;;;;13.72;73.80;100477.47;5054801;28;46291;-80
2022/11/07 02:07:08;;;;;;;;;2.75;1.00;;;;;13.76;73.85;100484.16;5055145;28;45902;-82
2022/11/07 02:09:34;;;;;;;;;4.75;2.00;;;;;13.76;73.87;100482.38;5056389;28;46115;-80
2022/11/07 02:12:00;;;;;;;;;2.50;1.25;;;;;13.65;73.71;100456.13;5039221;28;46346;-79
2022/11/07 02:14:27;;;;;;;;;3.00;1.00;;;;;13.78;73.79;100476.94;5057268;28;45748;-79
2022/11/07 02:16:53;;;;;;;;;1.25;1.00;;;;;13.76;74.01;100484.16;5057835;28;45708;-81
2022/11/07 02:19:45;;;;;;;;;3.25;2.00;;;;;13.76;73.79;100486.81;5057613;28;45628;-76
2022/11/07 02:22:38;;;;;;;;;4.00;2.00;;;;;13.76;73.63;100486.81;5052174;28;46325;-81
2022/11/07 02:25:08;;;;;;;;;3.00;1.75;;;;;13.76;73.61;100484.16;5054272;28;46260;-81
2022/11/07 02:27:36;;;;;;;;;1.50;0.50;;;;;13.77;73.44;100483.19;5054107;28;45711;-79
2022/11/07 02:30:10;;;;;;;;;4.75;2.25;;;;;13.77;73.45;100493.72;5054490;28;45744;-80
2022/11/07 02:32:36;;;;;;;;;0.75;0.25;;;;;13.77;73.57;100491.91;5054404;28;45636;-82
2022/11/07 02:35:05;;;;;;;;;2.00;2.00;;;;;13.77;73.50;100496.34;5054364;28;45592;-79
2022/11/07 02:37:37;;;;;;;;;2.00;2.00;;;;;13.64;73.34;100466.78;5054382;28;45751;-78
2022/11/07 02:40:08;;;;;;;;;2.25;1.00;;;;;13.69;73.57;100483.03;5054107;28;45625;-81
2022/11/07 02:42:42;;;;;;;;;3.00;0.50;;;;;13.70;73.77;100484.69;5053979;28;46463;-79
2022/11/07 02:45:39;;;;;;;;;3.00;1.50;;;;;13.77;73.39;100484.00;5054171;28;45954;-78
2022/11/07 02:48:05;;;;;;;;;2.25;2.00;;;;;13.77;73.71;100483.19;4991949;28;45850;-81
2022/11/07 02:50:30;;;;;;;;;6.00;1.00;;;;;13.69;73.52;100468.06;4991507;28;45832;-80
2022/11/07 02:52:56;;;;;;;;;2.75;2.00;;;;;13.75;73.69;100483.31;4991695;28;46815;-82
2022/11/07 02:55:21;;;;;;;;;1.25;1.25;;;;;13.74;73.34;100465.03;4991745;28;47210;-78
2022/11/07 02:57:46;;;;;;;;;1.00;1.00;;;;;13.71;73.27;100457.41;4991870;28;45877;-82
2022/11/07 03:00:13;;;;;;;;;3.00;1.75;;;;;13.71;73.29;100455.56;4991967;28;45855;-84
2022/11/07 03:02:39;;;;;;;;;3.00;2.00;;;;;13.72;73.47;100461.69;4991539;28;46732;-82
2022/11/07 03:05:05;;;;;;;;;6.25;3.00;;;;;13.75;73.53;100454.38;4993005;28;47164;-79
2022/11/07 03:07:30;;;;;;;;;3.00;2.00;;;;;13.77;73.19;100476.13;4994073;28;45628;-78
2022/11/07 03:09:57;;;;;;;;;1.75;1.75;;;;;13.78;73.14;100469.06;4994185;28;45651;-81
2022/11/07 03:12:22;;;;;;;;;3.75;2.00;;;;;13.79;73.46;100465.47;4992021;28;45831;-82
2022/11/07 03:14:48;;;;;;;;;4.00;1.75;;;;;13.80;73.00;100469.75;4991929;28;45633;-81
2022/11/07 03:17:14;;;;;;;;;1.50;1.00;;;;;13.78;73.32;100479.59;4991558;28;45751;-82
2022/11/07 03:19:39;;;;;;;;;0.00;0.00;;;;;13.79;73.43;100474.19;4992417;28;45669;-82
2022/11/07 03:22:04;;;;;;;;;1.25;1.00;;;;;13.79;73.09;100481.25;4992764;28;45786;-81
2022/11/07 03:24:31;;;;;;;;;1.50;1.00;;;;;13.79;73.04;100482.09;5027172;28;46131;-80
2022/11/07 03:26:58;;;;;;;;;2.00;2.00;;;;;13.79;72.76;100482.09;5058973;28;45558;-80
2022/11/07 03:29:23;;;;;;;;;2.75;1.00;;;;;13.76;73.45;100479.75;5058781;28;45908;-81
2022/11/07 03:31:48;;;;;;;;;3.00;1.00;;;;;13.80;73.34;100488.19;5052755;28;47568;-81
2022/11/07 03:34:14;;;;;;;;;3.00;1.00;;;;;13.81;72.93;100487.22;5053319;28;46160;-82
2022/11/07 03:36:40;;;;;;;;;2.00;1.00;;;;;13.82;73.16;100492.34;5053769;28;45574;-82
2022/11/07 03:39:05;;;;;;;;;1.50;1.25;;;;;13.82;72.82;100497.63;5054383;28;45856;-78
2022/11/07 03:41:30;;;;;;;;;2.50;2.00;;;;;13.80;73.20;100482.94;5053400;28;46449;-79
2022/11/07 03:43:55;;;;;;;;;3.00;1.00;;;;;13.83;72.84;100485.28;5053992;28;45748;-83
2022/11/07 03:46:21;;;;;;;;;3.00;1.00;;;;;13.82;73.34;100489.72;5053455;28;45736;-81
2022/11/07 03:48:46;;;;;;;;;1.00;1.00;;;;;13.80;73.78;100480.28;5053843;28;45809;-81
2022/11/07 03:51:12;;;;;;;;;2.00;1.25;;;;;13.81;73.47;100477.53;5053606;28;45557;-80
2022/11/07 03:53:37;;;;;;;;;2.75;1.00;;;;;13.81;73.56;100474.06;5053750;28;46254;-81
2022/11/07 03:59:24;;;;;;;;;0.75;0.25;;;;;13.77;73.54;100467.38;5053232;28;45657;-82
2022/11/07 04:01:50;;;;;;;;;1.75;1.00;;;;;13.80;73.29;100472.41;5052661;28;46661;-80
2022/11/07 04:04:15;;;;;;;;;3.50;2.00;;;;;13.81;73.60;100480.16;5052451;28;47181;-82
2022/11/07 04:06:40;;;;;;;;;1.75;0.75;;;;;13.79;73.57;100465.47;5052774;28;46018;-82
2022/11/07 04:09:06;;;;;;;;;1.00;0.75;;;;;13.82;73.42;100467.81;5053098;28;45537;-79
2022/11/07 04:17:38;;;;;;;;;1.00;1.00;;;;;13.85;73.47;100465.75;5053690;28;45736;-79
2022/11/07 04:20:04;;;;;;;;;5.00;2.75;;;;;13.82;73.15;100452.84;5056434;28;45730;-81
2022/11/07 04:22:29;;;;;;;;;3.00;1.00;;;;;13.87;73.30;100461.19;5056062;28;47440;-81
2022/11/07 04:24:54;;;;;;;;;3.00;1.50;;;;;13.87;73.15;100455.91;5053591;28;46197;-82
2022/11/07 04:30:22;;;;;;;;;5.25;3.25;;;;;13.91;73.50;100461.75;5052641;28;45553;-80
2022/11/07 04:32:50;;;;;;;;;2.00;1.25;;;;;13.93;73.11;100469.53;5052790;28;47426;-81
2022/11/07 04:35:16;;;;;;;;;1.00;1.00;;;;;13.94;73.30;100477.28;5053184;28;45877;-83
2022/11/07 04:37:42;;;;;;;;;2.50;1.25;;;;;13.94;73.20;100476.44;5054793;28;45604;-80
2022/11/07 04:40:10;;;;;;;;;3.75;1.00;;;;;13.90;73.07;100470.63;5056286;28;45899;-80
2022/11/07 04:42:35;;;;;;;;;2.75;2.00;;;;;13.94;73.24;100485.19;5055916;28;46634;-82
2022/11/07 04:45:01;;;;;;;;;1.75;1.00;;;;;13.93;72.91;100474.81;5055434;28;46060;-83
2022/11/07 04:47:26;;;;;;;;;2.00;2.00;;;;;13.93;72.98;100477.44;5056111;28;46040;-78
2022/11/07 04:49:52;;;;;;;;;1.00;0.50;;;;;13.92;73.40;100484.50;5056276;28;45700;-80
2022/11/07 04:52:17;;;;;;;;;1.75;0.75;;;;;13.90;73.38;100475.06;5038080;28;46237;-81
2022/11/07 04:54:43;;;;;;;;;2.75;1.50;;;;;13.94;73.40;100474.66;5056296;28;47260;-81
2022/11/07 04:57:08;;;;;;;;;2.00;1.50;;;;;13.83;73.21;100459.78;5056664;28;45674;-82
2022/11/07 04:59:33;;;;;;;;;2.00;2.00;;;;;13.94;73.55;100479.91;5056294;28;45826;-81
2022/11/07 05:02:00;;;;;;;;;1.00;1.00;;;;;13.94;73.47;100484.34;5055625;28;46854;-79
2022/11/07 05:04:25;;;;;;;;;1.00;1.00;;;;;13.94;73.30;100481.72;5055421;28;46232;-81
2022/11/07 05:06:51;;;;;;;;;2.75;1.75;;;;;13.92;73.58;100479.25;5055302;28;45624;-82
2022/11/07 05:09:17;;;;;;;;;5.00;1.00;;;;;13.84;73.10;100461.47;5055403;28;45846;-77
2022/11/07 05:15:06;;;;;;;;;1.00;0.25;;;;;13.98;73.75;100459.44;5055226;28;45590;-82
2022/11/07 05:17:31;;;;;;;;;2.00;1.00;;;;;13.97;73.51;100463.03;5055317;28;46468;-78
2022/11/07 05:19:56;;;;;;;;;2.25;1.00;;;;;13.98;73.38;100460.25;5055726;28;45664;-80
2022/11/07 05:25:06;;;;;;;;;2.50;1.50;;;;;13.97;73.34;100465.66;5055680;28;46045;-79
2022/11/07 05:27:31;;;;;;;;;3.50;3.00;;;;;13.97;73.18;100463.88;5055799;28;45829;-80
2022/11/07 05:29:56;;;;;;;;;3.00;2.00;;;;;13.90;73.20;100465.34;5056608;28;45604;-82
2022/11/07 05:32:22;;;;;;;;;1.25;1.25;;;;;14.00;73.59;100486.44;5058090;28;45558;-83
2022/11/07 05:34:48;;;;;;;;;1.00;1.00;;;;;14.03;73.27;100489.69;5058506;28;45698;-77
2022/11/07 05:37:13;;;;;;;;;4.25;3.00;;;;;14.02;73.64;100484.53;5057501;28;45677;-82
2022/11/07 05:39:38;;;;;;;;;1.00;1.00;;;;;14.04;73.31;100490.47;5055234;28;45878;-81
2022/11/07 05:42:04;;;;;;;;;3.50;1.75;;;;;14.01;73.24;100488.97;5056412;28;45701;-81
2022/11/07 05:44:30;;;;;;;;;3.00;1.00;;;;;14.05;73.50;100493.00;5055076;28;47148;-81
2022/11/07 05:46:56;;;;;;;;;2.00;2.00;;;;;14.04;73.18;100498.38;5055344;28;45536;-80
2022/11/07 05:49:23;;;;;;;;;2.00;2.00;;;;;14.07;73.23;100498.97;5057242;28;45846;-82
2022/11/07 05:51:49;;;;;;;;;1.25;0.25;;;;;14.08;73.23;100499.81;5058997;28;46340;-80
2022/11/07 05:54:15;;;;;;;;;2.50;1.25;;;;;14.08;73.27;100513.81;5058095;28;46340;-84
2022/11/07 06:00:02;;;;;;;;;1.00;1.00;;;;;14.05;73.16;100495.63;5055090;28;45669;-81
2022/11/07 06:02:27;;;;;;;;;4.00;1.75;;;;;14.06;73.20;100507.00;5054688;28;47272;-81
2022/11/07 06:04:53;;;;;;;;;2.00;1.00;;;;;14.05;73.59;100505.31;5054366;28;46893;-80
2022/11/07 06:07:18;;;;;;;;;2.00;0.50;;;;;13.97;73.13;100481.47;5054753;28;45840;-83
2022/11/07 06:09:43;;;;;;;;;2.75;1.00;;;;;14.06;73.09;100502.56;5054949;28;45915;-79
2022/11/07 06:12:09;;;;;;;;;1.00;0.00;;;;;14.04;73.46;100493.94;5054903;28;45692;-80
2022/11/07 06:14:34;;;;;;;;;2.25;1.00;;;;;14.08;73.28;100502.44;5054522;28;45659;-79
2022/11/07 06:16:59;;;;;;;;;1.75;0.25;;;;;14.08;73.48;100499.81;5054935;28;45841;-82
2022/11/07 06:19:25;;;;;;;;;2.00;1.00;;;;;14.10;73.50;100503.13;5053490;28;45903;-79
2022/11/07 06:21:50;;;;;;;;;2.25;1.00;;;;;14.10;72.97;100514.50;5036457;28;46215;-80
2022/11/07 06:24:15;;;;;;;;;0.75;0.00;;;;;14.12;73.41;100511.72;5054474;28;45682;-80
2022/11/07 06:30:04;;;;;;;;;2.25;1.00;;;;;14.11;73.37;100508.25;5054357;28;45829;-83
2022/11/07 06:32:30;;;;;;;;;2.00;1.00;;;;;14.15;73.05;100516.72;5053967;28;46449;-81
2022/11/07 06:34:56;;;;;;;;;2.00;1.00;;;;;14.14;73.38;100523.78;5053953;28;46967;-78
2022/11/07 06:37:25;;;;;;;;;2.00;1.00;;;;;14.18;73.02;100522.59;5054638;28;45954;-80
2022/11/07 06:45:56;;;;;;;;;3.00;2.00;;;;;14.23;72.95;100527.44;5056689;28;46076;-82
2022/11/07 06:48:21;;;;;;;;;2.25;2.25;;;;;14.22;72.86;100512.59;5057214;28;45663;-78
2022/11/07 06:50:47;;;;;;;;;3.00;2.00;;;;;14.25;73.04;100531.59;5056397;28;45575;-83
2022/11/07 06:53:14;;;;;;;;;2.50;2.00;;;;;14.28;73.08;100535.78;5055692;28;46405;-77
2022/11/07 06:55:39;;;;;;;;;2.00;1.00;;;;;14.26;72.83;100535.91;5055437;28;46184;-80
2022/11/07 06:58:05;;;;;;;;;3.25;2.00;;;;;14.26;73.18;100527.16;5056076;28;45578;-80
2022/11/07 07:00:32;;;;;;;;;5.50;2.75;;;;;14.27;73.19;100521.75;5055809;28;45622;-81
2022/11/07 07:02:57;;;;;;;;;3.00;1.75;;;;;14.34;73.20;100535.25;5055628;28;45682;-75
2022/11/07 07:05:24;;;;;;;;;2.75;1.50;;;;;14.38;73.06;100533.19;5055368;28;45980;-76
2022/11/07 07:07:49;;;;;;;;;2.50;2.00;;;;;14.41;72.79;100536.41;5053601;28;45776;-75
2022/11/07 07:10:15;;;;;;;;;1.75;1.00;;;;;14.45;73.23;100536.97;5054062;28;45708;-76
2022/11/07 07:12:40;;;;;;;;;3.00;2.00;;;;;14.48;73.17;100536.69;5054041;28;46311;-80
2022/11/07 07:15:07;;;;;;;;;1.75;1.25;;;;;14.50;72.85;100551.41;5035200;28;47159;-79
2022/11/07 07:17:32;;;;;;;;;1.00;1.00;;;;;14.53;72.65;100551.13;5052594;28;45564;-78
2022/11/07 07:19:57;;;;;;;;;2.00;2.00;;;;;14.54;72.88;100551.97;5034968;28;45828;-77
2022/11/07 07:22:23;;;;;;;;;2.00;1.00;;;;;14.57;72.59;100547.28;5053003;28;46480;-77
2022/11/07 07:24:50;;;;;;;;;3.00;1.00;;;;;14.59;72.57;100549.75;5053054;28;45668;-75
2022/11/07 07:30:37;;;;;;;;;2.75;1.75;;;;;14.64;72.69;100550.16;5052700;28;45590;-79
2022/11/07 07:33:03;;;;;;;;;2.00;2.00;;;;;14.66;72.75;100558.78;5052576;28;46567;-77
2022/11/07 07:35:28;;;;;;;;;1.50;1.00;;;;;14.67;72.64;100549.91;5052747;28;47395;-78
2022/11/07 07:37:54;;;;;;;;;4.75;2.00;;;;;14.69;72.68;100553.22;5053117;28;45791;-78
2022/11/07 07:40:20;;;;;;;;;3.00;1.25;;;;;14.67;72.46;100552.56;5052905;28;45555;-78
2022/11/07 07:42:45;;;;;;;;;4.00;2.00;;;;;14.71;72.61;100548.66;5053013;28;46352;-79
2022/11/07 07:45:12;;;;;;;;;3.25;2.75;;;;;14.68;72.57;100547.13;5053153;28;46094;-78
2022/11/07 07:47:39;;;;;;;;;2.00;1.00;;;;;14.75;72.55;100559.75;5052916;28;45923;-79
2022/11/07 07:50:06;;;;;;;;;2.00;2.00;;;;;14.77;72.65;100561.31;5052914;28;45602;-77
2022/11/07 07:52:32;;;;;;;;;3.75;3.00;;;;;14.79;72.29;100556.72;5052857;28;45804;-78
2022/11/07 07:54:57;;;;;;;;;3.25;1.25;;;;;14.70;72.40;100541.72;5052742;28;46149;-78
2022/11/07 08:01:13;;;;;;;;;3.25;2.75;;;;;14.84;72.54;100562.44;5054023;28;45857;-79
2022/11/07 08:03:39;;;;;;;;;3.25;1.50;;;;;14.77;72.44;100555.19;5053154;28;46633;-77
2022/11/07 08:06:04;;;;;;;;;2.75;1.00;;;;;14.85;72.25;100572.00;5052532;28;45938;-78
2022/11/07 08:08:30;;;;;;;;;3.50;2.00;;;;;14.89;72.52;100575.22;5052611;28;45667;-77
2022/11/07 08:11:06;;;;;;;;;2.75;2.00;;;;;14.91;72.50;100578.53;5052401;28;45535;-77
2022/11/07 08:13:32;;;;;;;;;3.75;2.00;;;;;14.92;72.58;100580.19;5052338;28;46525;-77
2022/11/07 08:16:01;;;;;;;;;1.50;1.50;;;;;14.93;72.16;100573.94;5052920;28;46445;-78
2022/11/07 08:18:26;;;;;;;;;2.25;2.25;;;;;14.97;72.36;100593.81;5053644;28;46146;-78
2022/11/07 08:20:54;;;;;;;;;3.50;2.25;;;;;14.97;72.32;100586.72;5053610;28;45844;-78
2022/11/07 08:23:22;;;;;;;;;3.50;2.50;;;;;15.03;72.16;100593.25;5053023;28;46422;-79
2022/11/07 08:25:58;;;;;;;;;1.00;1.00;;;;;15.06;72.09;100595.63;5052313;28;46021;-78
2022/11/07 08:28:28;;;;;;;;;2.25;1.00;;;;;15.05;72.09;100578.97;5052826;28;45586;-78
2022/11/07 08:31:07;;;;;;;;;1.75;1.00;;;;;15.11;72.08;100591.59;5052374;28;45705;-79
2022/11/07 08:33:33;;;;;;;;;2.25;1.75;;;;;15.09;71.97;100587.44;5051764;28;46744;-78
2022/11/07 08:36:00;;;;;;;;;1.75;1.25;;;;;15.15;71.92;100575.50;5051385;28;46101;-78
2022/11/07 08:38:29;;;;;;;;;3.00;2.00;;;;;15.14;72.07;100587.84;5033944;28;45801;-79
2022/11/07 08:40:55;;;;;;;;;5.00;1.00;;;;;15.20;71.81;100586.47;5051990;28;45612;-80
2022/11/07 08:43:20;;;;;;;;;2.00;1.00;;;;;15.25;71.42;100600.06;5051915;28;45716;-81
2022/11/07 08:45:47;;;;;;;;;2.00;1.00;;;;;15.16;71.63;100575.34;5051711;28;46625;-79
2022/11/07 08:48:13;;;;;;;;;1.00;1.00;;;;;15.29;71.43;100599.66;5052085;28;45753;-78
2022/11/07 08:50:39;;;;;;;;;5.00;1.00;;;;;15.32;71.54;100598.56;5052156;28;46367;-78
2022/11/07 08:53:05;;;;;;;;;1.50;1.00;;;;;15.33;71.36;100595.75;5051886;28;45719;-77
2022/11/07 08:55:31;;;;;;;;;1.25;1.25;;;;;15.36;71.25;100602.56;5051832;28;46066;-78
2022/11/07 09:01:17;;;;;;;;;3.00;2.00;;;;;15.32;71.08;100588.84;5051921;28;45714;-78
2022/11/07 09:03:43;;;;;;;;;2.25;1.00;;;;;15.36;71.40;100599.94;5052016;28;46201;-79
2022/11/07 09:06:09;;;;;;;;;2.50;1.00;;;;;15.42;71.11;100604.66;5052033;28;46292;-78
2022/11/07 09:08:35;;;;;;;;;2.25;1.50;;;;;15.43;71.28;100607.16;5051720;28;45940;-77
2022/11/07 09:11:02;;;;;;;;;1.75;1.00;;;;;15.45;70.99;100614.91;5052044;28;45612;-78
2022/11/07 09:13:31;;;;;;;;;2.00;1.25;;;;;15.46;71.17;100606.03;5051493;28;47471;-77
2022/11/07 09:15:58;;;;;;;;;3.00;1.00;;;;;15.51;70.92;100623.16;5052199;28;46657;-77
2022/11/07 09:18:24;;;;;;;;;2.00;1.25;;;;;15.53;71.04;100620.38;5051675;28;45945;-79
2022/11/07 09:20:50;;;;;;;;;3.00;2.00;;;;;15.53;70.54;100609.81;5051923;28;45657;-75
2022/11/07 09:23:15;;;;;;;;;2.00;1.00;;;;;15.50;70.87;100602.97;5051610;28;45638;-77
2022/11/07 09:25:41;;;;;;;;;1.00;1.00;;;;;15.58;70.91;100620.78;5051478;28;47178;-78
2022/11/07 09:31:28;;;;;;;;;1.00;1.00;;;;;15.60;70.70;100615.38;5055716;28;45746;-77
2022/11/07 09:33:53;;;;;;;;;1.00;1.00;;;;;15.61;70.72;100609.94;5055236;28;45632;-78
2022/11/07 09:36:20;;;;;;;;;2.00;1.00;;;;;15.69;70.75;100615.38;5055375;28;45710;-77
2022/11/07 09:38:46;;;;;;;;;1.50;1.00;;;;;15.70;70.38;100601.19;5054904;28;45720;-79
2022/11/07 09:41:31;;;;;;;;;2.00;2.00;;;;;15.73;70.38;100607.97;5055335;28;45864;-78
2022/11/07 09:44:24;;;;;;;;;2.00;2.00;;;;;15.80;70.26;100607.28;5054759;28;45927;-78
2022/11/07 09:47:18;;;;;;;;;2.00;1.00;;;;;15.86;70.23;100604.06;5054835;28;46571;-79
2022/11/07 09:49:50;;;;;;;;;2.00;1.00;;;;;15.89;69.98;100609.06;5048142;28;45961;-79
2022/11/07 09:52:25;;;;;;;;;2.00;2.00;;;;;15.94;69.94;100611.25;5054825;28;45643;-78
2022/11/07 09:54:58;;;;;;;;;3.75;3.50;;;;;15.97;70.17;100615.44;5054854;28;45950;-76
2022/11/07 09:57:25;;;;;;;;;4.50;2.00;;;;;15.95;69.80;100607.66;5054399;28;46166;-79
2022/11/07 09:59:53;;;;;;;;;3.75;2.00;;;;;15.98;69.81;100598.63;5054200;28;45705;-78
2022/11/07 10:02:37;;;;;;;;;5.00;3.00;;;;;16.04;69.70;100611.22;5054270;28;45769;-77
2022/11/07 10:05:03;;;;;;;;;3.00;2.00;;;;;16.05;69.25;100608.44;5054374;28;46400;-77
2022/11/07 10:07:48;;;;;;;;;2.75;1.00;;;;;16.07;69.05;100600.38;5054675;28;46081;-77
2022/11/07 10:10:25;;;;;;;;;1.25;1.00;;;;;16.16;69.13;100620.66;5054222;28;45609;-78
2022/11/07 10:13:09;;;;;;;;;1.00;1.00;;;;;16.21;69.05;100618.41;5054604;28;45800;-77
2022/11/07 10:16:02;;;;;;;;;2.75;1.00;;;;;16.24;69.15;100618.97;5054352;28;45677;-78
2022/11/07 10:18:53;;;;;;;;;3.25;1.00;;;;;16.23;69.01;100614.66;5054296;28;46402;-78
2022/11/07 10:21:30;;;;;;;;;2.00;2.00;;;;;16.29;68.94;100605.31;5054233;28;45847;-77
2022/11/07 10:24:24;;;;;;;;;2.25;1.00;;;;;16.32;68.79;100605.84;5054002;28;45797;-78
2022/11/07 10:30:16;;;;;;;;;3.00;1.25;;;;;16.42;68.26;100604.97;5054425;28;45799;-79
2022/11/07 10:33:12;;;;;;;;;2.00;1.00;;;;;16.51;68.03;100607.56;5053654;28;45515;-78
2022/11/07 10:35:43;;;;;;;;;2.50;2.00;;;;;16.54;68.09;100601.16;5035814;28;45622;-80
2022/11/07 10:38:20;;;;;;;;;1.50;1.50;;;;;16.58;68.22;100605.16;5054266;28;46289;-78
2022/11/07 10:40:47;;;;;;;;;2.25;2.00;;;;;16.62;67.97;100596.00;5052819;28;46530;-80
2022/11/07 10:46:39;;;;;;;;;3.00;2.00;;;;;16.66;68.00;100608.78;5053646;28;45831;-77
2022/11/07 10:49:28;;;;;;;;;2.50;1.25;;;;;16.67;67.63;100605.16;5053237;28;46788;-79
2022/11/07 10:52:17;;;;;;;;;2.50;1.50;;;;;16.65;67.69;100593.03;5053765;28;46320;-77
2022/11/07 10:54:45;;;;;;;;;5.50;2.00;;;;;16.70;67.43;100596.06;5053390;28;45661;-77
2022/11/07 10:57:15;;;;;;;;;1.00;1.00;;;;;16.72;67.26;100613.47;5053927;28;45681;-77
2022/11/07 10:59:45;;;;;;;;;1.00;1.00;;;;;16.67;67.80;100599.84;5053493;28;45842;-78
2022/11/07 11:02:31;;;;;;;;;2.50;1.50;;;;;16.76;67.23;100606.06;5053416;28;45999;-78
2022/11/07 11:05:02;;;;;;;;;3.00;1.00;;;;;16.77;67.18;100603.28;5053529;28;45792;-79
2022/11/07 11:07:36;;;;;;;;;1.00;1.00;;;;;16.81;67.39;100608.25;5053661;28;45566;-76
2022/11/07 11:10:03;;;;;;;;;4.50;1.00;;;;;16.75;67.21;100597.28;5053215;28;46672;-78
2022/11/07 11:12:31;;;;;;;;;1.25;1.25;;;;;16.85;66.74;100599.88;5053103;28;45626;-77
2022/11/07 11:15:04;;;;;;;;;1.00;1.00;;;;;16.86;67.02;100592.75;5053265;28;45754;-76
2022/11/07 11:17:30;;;;;;;;;1.00;1.00;;;;;16.84;66.71;100582.34;5053726;28;45673;-77
2022/11/07 11:19:55;;;;;;;;;2.00;2.00;;;;;16.87;66.58;100589.13;5052886;28;45659;-77
2022/11/07 11:22:24;;;;;;;;;4.00;1.00;;;;;16.90;66.43;100588.81;5053350;28;45889;-76
2022/11/07 11:25:17;;;;;;;;;3.00;2.50;;;;;16.90;66.09;100588.81;5053110;28;45708;-76
2022/11/07 11:27:45;;;;;;;;;4.00;1.75;;;;;16.91;66.09;100586.03;5053635;28;45641;-77
2022/11/07 11:30:15;;;;;;;;;1.00;1.00;;;;;16.93;66.55;100596.50;5053163;28;45869;-77
2022/11/07 11:32:50;;;;;;;;;2.25;2.00;;;;;16.96;66.36;100604.94;5052787;28;46222;-77
2022/11/07 11:35:41;;;;;;;;;1.75;1.75;;;;;17.02;66.07;100590.28;5052751;28;45674;-78
2022/11/07 11:38:09;;;;;;;;;2.75;1.25;;;;;17.05;66.05;100587.34;5054188;28;45858;-79
2022/11/07 11:40:41;;;;;;;;;2.50;2.50;;;;;17.07;65.51;100582.72;5053858;28;46346;-80
2022/11/07 11:43:22;;;;;;;;;2.25;2.00;;;;;16.92;65.56;100557.75;5053481;28;45872;-78
2022/11/07 11:46:02;;;;;;;;;2.00;1.50;;;;;17.09;65.59;100575.47;5052978;28;45645;-78
2022/11/07 11:48:51;;;;;;;;;3.00;2.00;;;;;17.11;65.51;100578.81;5052947;28;45895;-78
2022/11/07 11:51:37;;;;;;;;;2.00;1.00;;;;;17.13;65.44;100580.31;5033959;28;47622;-80
2022/11/07 11:54:07;;;;;;;;;3.75;1.00;;;;;17.15;64.92;100572.22;5052451;28;46330;-78
2022/11/07 11:56:52;;;;;;;;;2.25;1.00;;;;;17.23;64.71;100580.22;5054118;28;45844;-76
2022/11/07 11:59:41;;;;;;;;;3.25;1.75;;;;;17.29;64.99;100595.50;5054101;28;45568;-78
2022/11/07 12:02:26;;;;;;;;;2.50;1.00;;;;;17.34;64.19;100593.22;5035757;28;48053;-79
2022/11/07 12:05:15;;;;;;;;;2.00;1.75;;;;;17.39;64.33;100590.09;5052592;28;46108;-79
2022/11/07 12:08:05;;;;;;;;;2.00;1.00;;;;;17.41;64.21;100577.56;5034485;28;45949;-77
2022/11/07 12:10:38;;;;;;;;;5.25;2.25;;;;;17.40;64.05;100575.88;5052652;28;45916;-79
2022/11/07 12:16:44;;;;;;;;;2.00;1.00;;;;;17.37;64.21;100574.41;5052128;28;46011;-78
2022/11/07 12:19:31;;;;;;;;;2.75;1.75;;;;;17.37;63.91;100563.78;5052593;28;45612;-79
2022/11/07 12:22:23;;;;;;;;;5.00;1.50;;;;;17.37;63.90;100569.09;5052549;28;45921;-80
2022/11/07 12:24:55;;;;;;;;;3.25;1.25;;;;;17.38;63.71;100567.28;4989753;28;46222;-80
2022/11/07 12:27:37;;;;;;;;;5.25;1.50;;;;;17.38;64.10;100551.38;4989961;28;45999;-80
2022/11/07 12:30:18;;;;;;;;;1.00;1.00;;;;;17.44;64.17;100559.53;4989848;28;45746;-81
2022/11/07 12:32:49;;;;;;;;;3.25;2.00;;;;;17.50;64.09;100552.78;4989957;28;45901;-79
2022/11/07 12:35:40;;;;;;;;;2.25;2.00;;;;;17.54;63.61;100559.47;4990408;28;46723;-80
2022/11/07 12:38:06;;;;;;;;;4.25;2.00;;;;;17.59;63.78;100558.03;4990029;28;46028;-80
2022/11/07 12:40:52;;;;;;;;;2.00;1.00;;;;;17.63;63.03;100550.59;4990057;28;45777;-81
2022/11/07 12:43:51;;;;;;;;;2.75;1.00;;;;;17.67;63.21;100546.63;4990235;28;45694;-80
2022/11/07 12:46:24;;;;;;;;;2.00;1.00;;;;;17.69;63.27;100549.16;4912491;28;46583;-80